createdAt,value
2022-12-25T00:02:44.729Z,-1.29
2022-12-25T00:07:46.838Z,-1.47
2022-12-25T00:12:48.730Z,-1.52
2022-12-25T00:17:50.573Z,-1.56
2022-12-25T00:22:52.414Z,-1.50
2022-12-25T00:27:54.386Z,-1.44
2022-12-25T00:32:56.355Z,-1.66
2022-12-25T00:37:58.499Z,-1.65
2022-12-25T00:43:00.443Z,-1.59
2022-12-25T00:48:02.332Z,-1.57
2022-12-25T00:53:04.236Z,-1.67
2022-12-25T00:58:06.034Z,-1.74
2022-12-25T01:03:08.032Z,-1.85
2022-12-25T01:08:10.007Z,-1.95
2022-12-25T01:13:11.856Z,-1.92
2022-12-25T01:18:13.840Z,-1.99
2022-12-25T01:23:15.880Z,-1.98
2022-12-25T01:28:17.792Z,-1.96
2022-12-25T01:33:19.676Z,-1.96
2022-12-25T01:38:21.663Z,-2.04
2022-12-25T01:43:28.702Z,-2.07
2022-12-25T01:48:34.565Z,-2.07
2022-12-25T01:53:36.415Z,-1.99
2022-12-25T01:58:38.327Z,-1.92
2022-12-25T02:03:40.220Z,-1.89
2022-12-25T02:08:42.188Z,-2.14
2022-12-25T02:13:44.126Z,-2.28
2022-12-25T02:18:53.386Z,-2.38
2022-12-25T02:23:58.397Z,-2.21
2022-12-25T02:29:24.357Z,-2.30
2022-12-25T02:34:59.609Z,-2.59
2022-12-25T02:40:12.319Z,-2.82
2022-12-25T02:45:16.515Z,-2.69
2022-12-25T02:50:18.511Z,-2.62
2022-12-25T02:55:22.842Z,-2.54
2022-12-25T03:00:24.721Z,-2.52
2022-12-25T03:05:26.566Z,-2.40
2022-12-25T03:10:28.514Z,-2.41
2022-12-25T03:15:30.357Z,-2.75
2022-12-25T03:20:32.233Z,-2.65
2022-12-25T03:25:34.748Z,-2.54
2022-12-25T03:30:54.821Z,-2.39
2022-12-25T03:36:04.654Z,-2.52
2022-12-25T03:41:26.491Z,-2.49
2022-12-25T03:46:33.873Z,-2.60
2022-12-25T03:51:36.485Z,-2.80
2022-12-25T03:56:38.594Z,-2.71
2022-12-25T04:01:40.588Z,-2.61
2022-12-25T04:06:42.760Z,-2.78
2022-12-25T04:11:45.271Z,-2.99
2022-12-25T04:16:47.317Z,-2.90
2022-12-25T04:21:49.194Z,-2.83
2022-12-25T04:26:51.161Z,-2.78
2022-12-25T04:31:53.139Z,-2.78
2022-12-25T04:36:55.060Z,-2.78
2022-12-25T04:41:56.902Z,-2.80
2022-12-25T04:46:58.899Z,-2.72
2022-12-25T04:52:00.782Z,-2.74
2022-12-25T04:57:02.654Z,-2.72
2022-12-25T05:02:04.717Z,-2.79
2022-12-25T05:07:06.613Z,-2.85
2022-12-25T05:12:09.254Z,-2.91
2022-12-25T05:17:11.215Z,-3.01
2022-12-25T05:22:13.158Z,-2.87
2022-12-25T05:27:15.273Z,-3.22
2022-12-25T05:32:17.136Z,-3.12
2022-12-25T05:37:19.064Z,-3.25
2022-12-25T05:42:21.099Z,-3.56
2022-12-25T05:47:22.975Z,-3.49
2022-12-25T05:52:24.831Z,-3.54
2022-12-25T05:57:29.688Z,-3.68
2022-12-25T06:02:31.728Z,-3.74
2022-12-25T06:07:33.640Z,-3.67
2022-12-25T06:12:35.453Z,-3.58
2022-12-25T06:17:37.305Z,-3.42
2022-12-25T06:22:39.120Z,-3.24
2022-12-25T06:27:41.133Z,-3.27
2022-12-25T06:32:43.013Z,-3.12
2022-12-25T06:37:44.795Z,-3.10
2022-12-25T06:42:46.607Z,-3.18
2022-12-25T06:47:48.493Z,-3.14
2022-12-25T06:52:50.593Z,-3.21
2022-12-25T06:57:52.718Z,-3.17
2022-12-25T07:02:54.766Z,-3.42
2022-12-25T07:07:56.760Z,-3.68
2022-12-25T07:12:58.615Z,-3.62
2022-12-25T07:18:00.378Z,-3.64
2022-12-25T07:23:02.223Z,-3.56
2022-12-25T07:28:04.264Z,-3.55
2022-12-25T07:33:06.178Z,-3.76
2022-12-25T07:38:08.287Z,-3.53
2022-12-25T07:43:10.076Z,-3.61
2022-12-25T07:48:16.657Z,-3.35
2022-12-25T07:53:19.302Z,-3.22
2022-12-25T07:58:23.435Z,-3.08
2022-12-25T08:03:26.122Z,-2.92
2022-12-25T08:08:27.968Z,-2.90
2022-12-25T08:13:33.670Z,-2.91
2022-12-25T08:18:36.006Z,-3.04
2022-12-25T08:23:39.375Z,-2.99
2022-12-25T08:28:41.260Z,-3.22
2022-12-25T08:33:43.327Z,-3.42
2022-12-25T08:38:45.451Z,-3.16
2022-12-25T08:43:47.301Z,-2.98
2022-12-25T08:48:49.424Z,-3.25
2022-12-25T08:53:52.252Z,-3.42
2022-12-25T08:58:54.278Z,-3.36
2022-12-25T09:03:56.228Z,-3.23
2022-12-25T09:08:58.435Z,-3.34
2022-12-25T09:14:00.385Z,-3.66
2022-12-25T09:19:02.360Z,-3.54
2022-12-25T09:24:05.002Z,-3.39
2022-12-25T09:29:06.912Z,-3.22
2022-12-25T09:34:12.557Z,-3.17
2022-12-25T09:39:17.812Z,-3.23
2022-12-25T09:44:30.993Z,-3.22
2022-12-25T09:50:04.767Z,-3.17
2022-12-25T09:55:20.726Z,-3.11
2022-12-25T10:00:29.083Z,-3.15
2022-12-25T10:06:12.654Z,-3.13
2022-12-25T10:11:59.127Z,-3.21
2022-12-25T10:17:06.734Z,-3.29
2022-12-25T10:22:11.931Z,-3.22
2022-12-25T10:27:26.531Z,-3.42
2022-12-25T10:32:28.439Z,-3.22
2022-12-25T10:37:30.359Z,-2.98
2022-12-25T10:42:39.460Z,-3.02
2022-12-25T10:47:42.290Z,-3.00
2022-12-25T10:53:16.662Z,-2.98
2022-12-25T10:58:21.865Z,-3.00
2022-12-25T11:03:25.592Z,-2.77
2022-12-25T11:08:28.901Z,-2.70
2022-12-25T11:13:30.980Z,-2.59
2022-12-25T11:18:47.393Z,-2.53
2022-12-25T11:24:03.864Z,-2.78
2022-12-25T11:29:05.817Z,-2.62
2022-12-25T11:34:29.965Z,-2.63
2022-12-25T11:39:33.384Z,-2.75
2022-12-25T11:44:46.154Z,-2.50
2022-12-25T11:50:14.526Z,-2.55
2022-12-25T11:55:20.022Z,-2.64
2022-12-25T12:00:22.016Z,-2.53
2022-12-25T12:05:47.845Z,-2.62
2022-12-25T12:10:58.859Z,-2.53
2022-12-25T12:16:00.879Z,-2.64
2022-12-25T12:21:17.666Z,-2.62
2022-12-25T12:26:28.436Z,-2.61
2022-12-25T12:31:44.071Z,-2.77
2022-12-25T12:36:46.164Z,-2.85
2022-12-25T12:41:48.553Z,-2.83
2022-12-25T12:46:52.449Z,-3.10
2022-12-25T12:52:21.755Z,-3.23
2022-12-25T12:57:25.698Z,-3.24
2022-12-25T13:02:46.384Z,-3.22
2022-12-25T13:08:02.730Z,-3.33
2022-12-25T13:13:28.625Z,-3.33
2022-12-25T13:18:30.738Z,-3.44
2022-12-25T13:23:34.367Z,-3.66
2022-12-25T13:28:36.555Z,-3.55
2022-12-25T13:33:38.620Z,-3.59
2022-12-25T13:38:47.464Z,-3.73
2022-12-25T13:43:49.225Z,-3.85
2022-12-25T13:48:59.215Z,-3.95
2022-12-25T13:54:05.602Z,-3.97
2022-12-25T13:59:07.395Z,-4.09
2022-12-25T14:04:16.596Z,-4.08
2022-12-25T14:09:18.420Z,-4.08
2022-12-25T14:14:22.318Z,-4.10
2022-12-25T14:19:34.051Z,-4.09
2022-12-25T14:24:35.872Z,-4.13
2022-12-25T14:29:39.440Z,-4.18
2022-12-25T14:34:41.285Z,-4.16
2022-12-25T14:39:43.208Z,-4.22
2022-12-25T14:44:45.149Z,-4.24
2022-12-25T14:49:47.656Z,-4.22
2022-12-25T14:55:08.907Z,-4.26
2022-12-25T15:00:27.208Z,-4.27
2022-12-25T15:05:38.591Z,-4.22
2022-12-25T15:16:04.377Z,-4.13
2022-12-25T15:21:06.438Z,-4.14
2022-12-25T15:26:13.512Z,-4.20
2022-12-25T15:31:21.144Z,-4.21
2022-12-25T15:36:23.442Z,-4.29
2022-12-25T15:41:28.178Z,-4.18
2022-12-25T15:46:30.247Z,-4.03
2022-12-25T15:51:32.187Z,-3.91
2022-12-25T15:56:43.647Z,-3.88
2022-12-25T16:01:57.175Z,-3.85
2022-12-25T16:07:02.330Z,-3.86
2022-12-25T16:12:04.272Z,-3.82
2022-12-25T16:17:06.132Z,-3.77
2022-12-25T16:22:17.198Z,-3.93
2022-12-25T16:27:19.117Z,-3.84
2022-12-25T16:32:20.989Z,-3.84
2022-12-25T16:37:22.903Z,-3.77
2022-12-25T16:42:24.760Z,-3.74
2022-12-25T16:47:26.732Z,-3.70
2022-12-25T16:52:28.597Z,-3.88
2022-12-25T16:57:31.910Z,-3.85
2022-12-25T17:02:34.309Z,-4.05
2022-12-25T17:07:36.505Z,-3.94
2022-12-25T17:12:38.407Z,-3.75
2022-12-25T17:17:40.329Z,-3.74
2022-12-25T17:22:42.271Z,-3.73
2022-12-25T17:27:44.183Z,-3.70
2022-12-25T17:32:46.117Z,-3.71
2022-12-25T17:37:48.089Z,-3.83
2022-12-25T17:42:49.969Z,-3.79
2022-12-25T17:47:51.907Z,-3.75
2022-12-25T17:52:53.837Z,-3.66
2022-12-25T17:57:55.720Z,-3.63
2022-12-25T18:02:58.049Z,-3.64
2022-12-25T18:08:00.097Z,-3.61
2022-12-25T18:13:02.321Z,-3.54
2022-12-25T18:18:04.531Z,-3.51
2022-12-25T18:23:06.421Z,-3.50
2022-12-25T18:28:09.491Z,-3.52
2022-12-25T18:33:11.595Z,-3.70
2022-12-25T18:38:13.586Z,-3.62
2022-12-25T18:43:15.475Z,-3.56
2022-12-25T18:48:17.280Z,-3.75
2022-12-25T18:53:19.136Z,-3.62
2022-12-25T18:58:21.095Z,-3.71
2022-12-25T19:03:23.126Z,-3.54
2022-12-25T19:08:25.112Z,-3.60
2022-12-25T19:13:26.971Z,-3.44
2022-12-25T19:18:28.854Z,-3.26
2022-12-25T19:23:30.789Z,-3.16
2022-12-25T19:28:32.688Z,-3.08
2022-12-25T19:33:34.972Z,-3.10
2022-12-25T19:38:36.913Z,-3.08
2022-12-25T19:43:39.686Z,-2.94
2022-12-25T19:48:41.557Z,-2.99
2022-12-25T19:53:43.579Z,-3.09
2022-12-25T19:58:45.753Z,-3.02
2022-12-25T20:03:49.063Z,-2.98
2022-12-25T20:08:55.804Z,-2.93
2022-12-25T20:13:57.974Z,-3.10
2022-12-25T20:18:59.808Z,-3.15
2022-12-25T20:24:01.871Z,-3.24
2022-12-25T20:29:03.981Z,-3.12
2022-12-25T20:34:07.681Z,-3.03
2022-12-25T20:39:10.911Z,-3.06
2022-12-25T20:44:12.845Z,-3.06
2022-12-25T20:49:14.865Z,-2.95
2022-12-25T20:54:16.799Z,-3.07
2022-12-25T20:59:18.716Z,-3.12
2022-12-25T21:04:20.639Z,-3.17
2022-12-25T21:09:22.525Z,-3.15
2022-12-25T21:14:24.329Z,-3.17
2022-12-25T21:19:26.315Z,-3.31
2022-12-25T21:24:28.299Z,-3.61
2022-12-25T21:29:30.141Z,-3.40
2022-12-25T21:34:32.055Z,-3.30
2022-12-25T21:39:33.975Z,-3.25
2022-12-25T21:44:35.954Z,-3.14
2022-12-25T21:49:37.783Z,-3.33
2022-12-25T21:54:39.720Z,-3.40
2022-12-25T21:59:41.668Z,-3.29
2022-12-25T22:04:43.595Z,-3.32
2022-12-25T22:09:50.041Z,-3.41
2022-12-25T22:14:56.908Z,-3.31
2022-12-25T22:19:59.175Z,-3.18
2022-12-25T22:25:02.052Z,-3.26
2022-12-25T22:30:10.606Z,-3.33
2022-12-25T22:35:12.693Z,-3.40
2022-12-25T22:40:15.726Z,-3.34
2022-12-25T22:45:17.639Z,-3.30
2022-12-25T22:50:19.557Z,-3.53
2022-12-25T22:55:21.433Z,-3.56
2022-12-25T23:00:23.312Z,-3.66
2022-12-25T23:05:25.141Z,-3.67
2022-12-25T23:10:27.030Z,-3.63
2022-12-25T23:15:28.918Z,-3.66
2022-12-25T23:20:32.765Z,-3.70
2022-12-25T23:25:35.211Z,-3.65
2022-12-25T23:30:37.021Z,-3.66
2022-12-25T23:35:38.941Z,-3.67
2022-12-25T23:40:40.807Z,-3.80
2022-12-25T23:45:42.629Z,-3.77
2022-12-25T23:50:44.423Z,-3.98
2022-12-25T23:55:51.522Z,-3.99
